Time;durP1;ratioP1;P1;durP2;ratioP2;P2;SDS_P1;SDS_P2;PMS_P1;PMS_P2;Temp;Humidity;BMP_temperature;BMP_pressure;BME280_temperature;BME280_humidity;BME280_pressure;Samples;Min_cycle;Max_cycle;Signal;HPM_P1;HPM_P2
2023/05/25 00:01:06;;;;;;;6.35;3.78;;;21.30;67.40;;;;;;4885863;28;91809;-89
2023/05/25 00:03:32;;;;;;;5.65;4.35;;;21.30;66.30;;;;;;4884975;28;93143;-86
2023/05/25 00:06:00;;;;;;;6.90;4.25;;;21.30;66.60;;;;;;4884321;28;95856;-87
2023/05/25 00:08:26;;;;;;;6.30;4.00;;;21.30;66.60;;;;;;4886036;28;94315;-87
2023/05/25 00:10:51;;;;;;;6.45;4.00;;;21.30;66.60;;;;;;4886102;28;92671;-91
2023/05/25 00:13:17;;;;;;;6.07;3.75;;;21.30;66.70;;;;;;4886231;28;93700;-87
2023/05/25 00:15:42;;;;;;;5.88;3.40;;;21.30;66.80;;;;;;4899641;28;95649;-87
2023/05/25 00:18:08;;;;;;;5.38;3.60;;;21.30;66.70;;;;;;4886657;28;92922;-90
2023/05/25 00:20:34;;;;;;;5.32;3.40;;;21.30;66.60;;;;;;4885130;28;92848;-87
2023/05/25 00:23:01;;;;;;;6.22;3.70;;;21.30;66.60;;;;;;4883329;28;96096;-89
2023/05/25 00:25:27;;;;;;;6.47;3.88;;;21.30;66.70;;;;;;4883522;28;95544;-88
2023/05/25 00:27:52;;;;;;;6.28;3.88;;;21.20;66.60;;;;;;4885856;28;93715;-87
2023/05/25 00:30:18;;;;;;;7.25;3.90;;;21.20;66.50;;;;;;4884646;28;93074;-90
2023/05/25 00:32:44;;;;;;;5.70;3.65;;;21.20;66.50;;;;;;4885405;28;93651;-90
2023/05/25 00:35:10;;;;;;;7.15;3.72;;;21.20;66.50;;;;;;4886006;28;94078;-91
2023/05/25 00:37:36;;;;;;;6.35;3.80;;;21.20;66.50;;;;;;4884656;28;92663;-87
2023/05/25 00:40:03;;;;;;;5.75;3.92;;;21.20;66.60;;;;;;4886246;28;92585;-87
2023/05/25 00:42:29;;;;;;;5.65;3.70;;;21.20;66.50;;;;;;4883601;28;95275;-88
2023/05/25 00:44:55;;;;;;;5.38;3.88;;;21.20;66.50;;;;;;4885086;28;96665;-86
2023/05/25 00:47:20;;;;;;;6.22;4.20;;;21.20;66.50;;;;;;4883802;28;93015;-88
2023/05/25 00:49:46;;;;;;;6.40;3.47;;;21.20;66.40;;;;;;4884957;28;92204;-87
2023/05/25 00:52:12;;;;;;;6.18;3.65;;;21.20;66.30;;;;;;4883274;28;96559;-90
2023/05/25 00:54:38;;;;;;;4.70;3.55;;;21.20;66.60;;;;;;4883676;28;92903;-89
2023/05/25 00:57:06;;;;;;;4.75;3.38;;;21.20;66.60;;;;;;4882928;28;93949;-88
2023/05/25 00:59:43;;;;;;;6.80;3.70;;;21.20;66.60;;;;;;4884484;28;93053;-88
2023/05/25 01:02:16;;;;;;;5.47;3.80;;;21.20;66.50;;;;;;4899181;28;94354;-88
2023/05/25 01:04:58;;;;;;;7.43;3.83;;;21.10;66.50;;;;;;4884156;28;95524;-87
2023/05/25 01:07:26;;;;;;;4.85;3.70;;;21.10;66.50;;;;;;4900585;28;93532;-87
2023/05/25 01:09:57;;;;;;;4.35;3.30;;;21.10;66.70;;;;;;4883053;28;92829;-87
2023/05/25 01:12:25;;;;;;;5.03;3.55;;;21.10;66.60;;;;;;4883406;28;95578;-88
2023/05/25 01:14:53;;;;;;;4.80;3.67;;;21.10;66.60;;;;;;4884813;28;95313;-90
2023/05/25 01:17:20;;;;;;;5.03;3.40;;;21.10;66.60;;;;;;4899664;28;92558;-89
2023/05/25 01:19:46;;;;;;;4.32;3.00;;;21.10;66.60;;;;;;4885546;28;92906;-89
2023/05/25 01:22:23;;;;;;;4.13;3.15;;;21.10;66.80;;;;;;4883167;28;96958;-88
2023/05/25 01:25:00;;;;;;;5.18;3.30;;;21.10;66.60;;;;;;4883152;28;96339;-88
2023/05/25 01:27:42;;;;;;;5.72;3.85;;;21.10;67.30;;;;;;4900429;28;93045;-91
2023/05/25 01:30:11;;;;;;;5.47;3.28;;;21.10;66.80;;;;;;4884809;28;92430;-87
2023/05/25 01:32:37;;;;;;;5.28;3.20;;;21.10;66.50;;;;;;4885724;28;94089;-89
2023/05/25 01:35:03;;;;;;;4.13;3.03;;;21.10;66.60;;;;;;4883194;28;94913;-90
2023/05/25 01:37:30;;;;;;;4.65;3.22;;;21.10;66.50;;;;;;4884872;28;93358;-87
2023/05/25 01:39:56;;;;;;;5.45;3.58;;;21.10;66.50;;;;;;4883791;28;92969;-88
2023/05/25 01:42:22;;;;;;;6.00;3.78;;;21.10;66.50;;;;;;4882809;28;96629;-89
2023/05/25 01:44:48;;;;;;;4.70;3.25;;;21.10;66.50;;;;;;4884940;28;93582;-86
2023/05/25 01:47:17;;;;;;;4.93;3.55;;;21.10;66.40;;;;;;4882258;28;94145;-89
2023/05/25 01:50:03;;;;;;;5.33;3.87;;;21.10;66.40;;;;;;4874915;28;93041;-89
2023/05/25 01:52:34;;;;;;;4.38;3.10;;;21.10;66.30;;;;;;4883939;28;92786;-87
2023/05/25 01:55:13;;;;;;;5.10;3.58;;;21.10;66.50;;;;;;4883856;28;95630;-87
2023/05/25 01:57:42;;;;;;;6.03;4.10;;;21.10;66.50;;;;;;4884317;28;92665;-90
2023/05/25 02:00:10;;;;;;;6.15;3.38;;;21.10;66.50;;;;;;4884082;28;92105;-89
2023/05/25 02:02:39;;;;;;;5.47;3.25;;;21.00;66.60;;;;;;4885216;28;95457;-88
2023/05/25 02:05:06;;;;;;;5.43;3.23;;;21.10;66.50;;;;;;4883090;28;94151;-90
2023/05/25 02:07:32;;;;;;;5.10;2.97;;;21.10;66.40;;;;;;4883734;28;92940;-89
2023/05/25 02:09:58;;;;;;;5.22;3.40;;;21.10;66.30;;;;;;4882099;28;92811;-87
2023/05/25 02:12:24;;;;;;;4.30;2.95;;;21.10;66.30;;;;;;4883297;28;96591;-89
2023/05/25 02:14:50;;;;;;;4.47;2.72;;;21.00;66.20;;;;;;4889017;28;96216;-88
2023/05/25 02:17:18;;;;;;;4.85;2.92;;;21.00;66.40;;;;;;4888928;28;92599;-88
2023/05/25 02:19:47;;;;;;;5.20;3.08;;;21.10;66.40;;;;;;4888170;28;92811;-89
2023/05/25 02:22:13;;;;;;;5.33;3.53;;;21.10;66.00;;;;;;4885592;28;95312;-87
2023/05/25 02:24:38;;;;;;;4.00;2.90;;;21.00;66.20;;;;;;4886835;28;95112;-88
2023/05/25 02:27:05;;;;;;;4.75;3.40;;;21.00;66.40;;;;;;4889884;28;92691;-86
2023/05/25 02:29:31;;;;;;;4.38;3.05;;;21.00;66.40;;;;;;4888256;28;92404;-88
2023/05/25 02:31:58;;;;;;;5.28;3.40;;;21.00;66.40;;;;;;4903819;28;95704;-90
2023/05/25 02:34:23;;;;;;;3.70;2.90;;;21.00;66.30;;;;;;4887209;28;94116;-87
2023/05/25 02:36:49;;;;;;;4.35;3.35;;;21.00;67.20;;;;;;4886651;28;93188;-88
2023/05/25 02:39:15;;;;;;;3.15;2.83;;;21.00;66.30;;;;;;4902530;28;92612;-89
2023/05/25 02:41:41;;;;;;;6.07;3.58;;;21.00;66.10;;;;;;4887864;28;95769;-87
2023/05/25 02:44:07;;;;;;;8.07;3.20;;;21.00;67.00;;;;;;4887537;28;95281;-88
2023/05/25 02:46:33;;;;;;;5.53;3.30;;;21.00;65.90;;;;;;4888874;28;92459;-88
2023/05/25 02:48:59;;;;;;;5.57;3.50;;;21.00;66.10;;;;;;4889271;28;93040;-90
2023/05/25 02:51:25;;;;;;;3.92;2.92;;;21.00;67.00;;;;;;4903802;28;95640;-91
2023/05/25 02:53:51;;;;;;;4.03;2.97;;;21.00;66.10;;;;;;4888717;28;95403;-90
2023/05/25 02:56:17;;;;;;;5.03;3.78;;;20.90;66.20;;;;;;4887568;28;94124;-87
2023/05/25 02:58:43;;;;;;;4.45;2.83;;;21.00;66.30;;;;;;4888755;28;93144;-90
2023/05/25 03:01:09;;;;;;;5.13;3.45;;;21.00;66.20;;;;;;4886027;28;96515;-85
2023/05/25 03:03:36;;;;;;;3.95;3.00;;;21.00;66.30;;;;;;4888184;28;93443;-89
2023/05/25 03:06:03;;;;;;;5.35;3.28;;;21.00;66.20;;;;;;4887253;28;93120;-89
2023/05/25 03:08:29;;;;;;;3.67;3.00;;;20.90;66.30;;;;;;4885190;28;92975;-87
2023/05/25 03:10:55;;;;;;;4.35;3.10;;;20.90;66.30;;;;;;4886828;28;93059;-88
2023/05/25 03:13:21;;;;;;;4.38;2.97;;;21.00;66.40;;;;;;4888312;28;93075;-90
2023/05/25 03:15:46;;;;;;;4.82;2.95;;;20.90;66.30;;;;;;4888077;28;93049;-90
2023/05/25 03:18:12;;;;;;;3.13;2.67;;;20.90;66.30;;;;;;4890543;28;91646;-88
2023/05/25 03:20:37;;;;;;;4.25;3.03;;;20.90;66.30;;;;;;4897290;28;95323;-86
2023/05/25 03:23:03;;;;;;;4.10;3.05;;;20.90;66.30;;;;;;4895408;28;95441;-90
2023/05/25 03:25:29;;;;;;;5.03;3.28;;;20.80;66.30;;;;;;4899274;28;93634;-88
2023/05/25 03:27:55;;;;;;;4.38;3.17;;;20.90;66.20;;;;;;4897315;28;93971;-89
2023/05/25 03:30:22;;;;;;;4.10;3.03;;;20.80;66.30;;;;;;4897646;28;96528;-87
2023/05/25 03:32:47;;;;;;;3.92;3.08;;;20.80;66.30;;;;;;4898326;28;93075;-87
2023/05/25 03:35:13;;;;;;;3.92;2.90;;;20.90;66.30;;;;;;4900104;28;93323;-90
2023/05/25 03:37:39;;;;;;;3.50;2.90;;;20.90;66.30;;;;;;4894987;28;92367;-88
2023/05/25 03:40:05;;;;;;;5.10;3.15;;;20.90;66.10;;;;;;4897733;28;95593;-87
2023/05/25 03:42:31;;;;;;;5.15;2.90;;;20.80;66.10;;;;;;4896801;28;95865;-87
2023/05/25 03:44:56;;;;;;;4.45;2.67;;;20.90;66.30;;;;;;4897853;28;92247;-88
2023/05/25 03:47:22;;;;;;;4.38;2.75;;;20.90;66.00;;;;;;4898274;28;92513;-88
2023/05/25 03:49:48;;;;;;;4.20;3.30;;;20.80;66.10;;;;;;4897307;28;94176;-88
2023/05/25 03:52:13;;;;;;;3.85;2.75;;;20.80;66.20;;;;;;4897067;28;95182;-88
2023/05/25 03:54:39;;;;;;;4.43;3.25;;;20.80;66.10;;;;;;4898750;28;92963;-90
2023/05/25 03:57:05;;;;;;;5.13;2.70;;;20.80;66.00;;;;;;4900519;28;92075;-87
2023/05/25 03:59:30;;;;;;;3.00;2.67;;;20.80;65.90;;;;;;4879711;28;95983;-86
2023/05/25 04:01:56;;;;;;;4.60;3.42;;;20.80;66.10;;;;;;4898192;28;93250;-89
2023/05/25 04:04:21;;;;;;;4.05;2.80;;;20.80;66.10;;;;;;4898715;28;92916;-87
2023/05/25 04:06:50;;;;;;;3.72;2.65;;;20.90;66.10;;;;;;4898185;28;91337;-88
2023/05/25 04:09:16;;;;;;;4.22;2.80;;;20.90;65.80;;;;;;4890263;28;93480;-87
2023/05/25 04:11:43;;;;;;;4.28;2.83;;;20.80;66.00;;;;;;4884048;28;94460;-89
2023/05/25 04:14:09;;;;;;;5.07;3.00;;;20.80;66.10;;;;;;4886542;28;93537;-87
2023/05/25 04:16:34;;;;;;;3.30;2.67;;;20.90;66.00;;;;;;4881602;28;92380;-88
2023/05/25 04:19:00;;;;;;;5.18;3.33;;;20.80;65.90;;;;;;4889943;28;93093;-88
2023/05/25 04:21:26;;;;;;;4.20;3.33;;;20.90;66.00;;;;;;4894740;28;92869;-86
2023/05/25 04:23:51;;;;;;;2.88;2.45;;;20.90;65.80;;;;;;4896737;28;92557;-89
2023/05/25 04:26:17;;;;;;;4.32;2.80;;;20.90;66.80;;;;;;4899468;28;92197;-90
2023/05/25 04:28:43;;;;;;;5.75;3.45;;;20.90;65.90;;;;;;4898787;28;93011;-89
2023/05/25 04:31:08;;;;;;;3.55;2.65;;;20.90;65.70;;;;;;4891723;28;95156;-88
2023/05/25 04:33:37;;;;;;;3.25;2.70;;;20.90;65.90;;;;;;4888384;28;92779;-89
2023/05/25 04:36:04;;;;;;;4.10;2.88;;;20.90;65.90;;;;;;4884947;28;92513;-90
2023/05/25 04:38:31;;;;;;;4.15;2.70;;;20.90;65.90;;;;;;4883364;28;96529;-90
2023/05/25 04:40:58;;;;;;;4.25;3.00;;;20.90;65.80;;;;;;4885092;28;95461;-87
2023/05/25 04:43:24;;;;;;;3.10;2.63;;;20.90;65.80;;;;;;4885121;28;92766;-89
2023/05/25 04:45:53;;;;;;;3.83;2.45;;;20.90;65.90;;;;;;4886285;28;92847;-87
2023/05/25 04:48:19;;;;;;;3.23;2.47;;;20.80;65.80;;;;;;4885719;28;93322;-88
2023/05/25 04:50:44;;;;;;;4.68;2.55;;;20.80;65.90;;;;;;4885601;28;93232;-87
2023/05/25 04:53:10;;;;;;;3.20;2.42;;;20.80;66.10;;;;;;4883126;28;93253;-89
2023/05/25 04:55:36;;;;;;;2.92;2.38;;;20.80;66.30;;;;;;4883487;28;92438;-89
2023/05/25 04:58:02;;;;;;;3.13;2.50;;;20.80;66.20;;;;;;4882984;28;95218;-87
2023/05/25 05:00:27;;;;;;;5.28;2.47;;;20.80;66.20;;;;;;4882977;28;95645;-88
2023/05/25 05:02:57;;;;;;;4.15;2.70;;;20.80;66.20;;;;;;4885243;28;93376;-88
2023/05/25 05:05:23;;;;;;;4.70;2.58;;;20.80;66.20;;;;;;4884957;28;93246;-89
2023/05/25 05:07:49;;;;;;;3.38;2.35;;;20.80;66.30;;;;;;4883377;28;96253;-88
2023/05/25 05:10:15;;;;;;;3.67;2.58;;;20.80;66.40;;;;;;4882419;28;95370;-88
2023/05/25 05:12:40;;;;;;;5.10;2.95;;;20.90;66.40;;;;;;4885133;28;92179;-87
2023/05/25 05:15:06;;;;;;;2.42;2.20;;;20.90;66.40;;;;;;4883381;28;93132;-89
2023/05/25 05:17:32;;;;;;;3.45;2.13;;;20.90;66.30;;;;;;4882961;28;95400;-86
2023/05/25 05:19:58;;;;;;;3.10;2.50;;;20.90;66.30;;;;;;4885770;28;93359;-87
2023/05/25 05:22:24;;;;;;;3.28;2.78;;;20.90;66.20;;;;;;4882900;28;92630;-87
2023/05/25 05:24:49;;;;;;;3.67;2.60;;;20.90;66.10;;;;;;4884212;28;93138;-87
2023/05/25 05:27:19;;;;;;;3.22;2.53;;;21.00;66.10;;;;;;4885580;28;96184;-86
2023/05/25 05:29:45;;;;;;;3.03;2.42;;;21.00;65.80;;;;;;4902067;28;92736;-90
2023/05/25 05:32:10;;;;;;;3.40;2.40;;;21.10;65.90;;;;;;4884178;28;92044;-89
2023/05/25 05:34:36;;;;;;;3.33;2.60;;;21.10;65.70;;;;;;4882244;28;92876;-87
2023/05/25 05:37:02;;;;;;;7.07;3.50;;;21.00;65.80;;;;;;4882759;28;94899;-87
2023/05/25 05:39:27;;;;;;;4.13;2.97;;;21.10;65.70;;;;;;4884106;28;93010;-87
2023/05/25 05:41:53;;;;;;;4.13;2.83;;;21.00;66.00;;;;;;4883809;28;92173;-94
2023/05/25 05:44:22;;;;;;;6.38;3.28;;;21.00;65.90;;;;;;4883964;28;92524;-87
2023/05/25 05:46:48;;;;;;;4.53;2.65;;;21.10;65.70;;;;;;4898408;28;96632;-90
2023/05/25 05:49:14;;;;;;;3.95;2.92;;;21.20;65.20;;;;;;4883752;28;95519;-89
2023/05/25 05:51:39;;;;;;;4.40;2.90;;;21.10;65.00;;;;;;4885014;28;93024;-90
2023/05/25 05:54:05;;;;;;;3.97;3.10;;;21.10;64.90;;;;;;4885859;28;93009;-90
2023/05/25 05:56:31;;;;;;;4.30;2.85;;;21.10;64.80;;;;;;4883183;28;95298;-89
2023/05/25 05:58:56;;;;;;;6.80;3.40;;;21.10;65.10;;;;;;4887779;28;93093;-87
2023/05/25 06:01:22;;;;;;;4.63;2.92;;;21.20;64.30;;;;;;4889170;28;93982;-92
2023/05/25 06:03:49;;;;;;;5.75;2.88;;;21.20;64.30;;;;;;4891896;28;93207;-91
2023/05/25 06:06:15;;;;;;;6.50;3.35;;;21.20;64.00;;;;;;4891721;28;93065;-91
2023/05/25 06:08:41;;;;;;;7.63;3.72;;;21.20;64.10;;;;;;4892077;28;91619;-93
2023/05/25 06:11:07;;;;;;;7.03;3.05;;;21.20;63.90;;;;;;4888409;28;92804;-91
2023/05/25 06:13:33;;;;;;;5.53;2.90;;;21.20;64.00;;;;;;4888650;28;92394;-90
2023/05/25 06:15:58;;;;;;;6.95;2.88;;;21.30;64.00;;;;;;4888781;28;96325;-90
2023/05/25 06:18:24;;;;;;;4.95;2.92;;;21.30;64.10;;;;;;4888431;28;96762;-92
2023/05/25 06:20:50;;;;;;;25.05;5.47;;;21.30;64.50;;;;;;4887668;28;93356;-89
2023/05/25 06:23:17;;;;;;;29.73;8.13;;;21.40;64.10;;;;;;4884026;28;92915;-91
2023/05/25 06:25:46;;;;;;;37.53;9.25;;;21.40;63.60;;;;;;4884451;28;96364;-90
2023/05/25 06:28:12;;;;;;;33.80;8.25;;;21.40;63.20;;;;;;4899843;28;93832;-89
2023/05/25 06:30:38;;;;;;;33.85;8.98;;;21.50;63.60;;;;;;4884924;28;92931;-86
2023/05/25 06:33:03;;;;;;;34.20;9.35;;;21.50;62.70;;;;;;4880803;28;92156;-87
2023/05/25 06:35:29;;;;;;;35.92;8.85;;;21.50;62.80;;;;;;4880120;28;95926;-87
2023/05/25 06:37:55;;;;;;;35.72;10.05;;;21.60;62.90;;;;;;4882560;28;92964;-86
2023/05/25 06:40:21;;;;;;;35.35;8.68;;;21.60;63.10;;;;;;4881110;28;93939;-87
2023/05/25 06:42:46;;;;;;;30.70;7.82;;;21.60;63.10;;;;;;4894254;28;92097;-87
2023/05/25 06:45:12;;;;;;;29.30;8.75;;;21.60;61.80;;;;;;4878454;28;96545;-88
2023/05/25 06:47:38;;;;;;;26.33;8.57;;;21.70;62.70;;;;;;4880090;28;92958;-89
2023/05/25 06:50:05;;;;;;;25.48;8.35;;;21.70;63.30;;;;;;4881844;28;92952;-89
2023/05/25 06:52:30;;;;;;;31.95;8.73;;;21.70;63.10;;;;;;4884025;28;93303;-86
2023/05/25 06:54:56;;;;;;;33.70;9.65;;;21.60;62.90;;;;;;4875945;28;95770;-86
2023/05/25 06:57:23;;;;;;;27.70;8.73;;;21.70;63.00;;;;;;4880564;28;95180;-86
2023/05/25 06:59:49;;;;;;;32.17;9.00;;;21.70;63.00;;;;;;4881853;28;92573;-85
2023/05/25 07:02:14;;;;;;;33.55;9.52;;;21.70;62.80;;;;;;4878943;28;92991;-86
2023/05/25 07:04:40;;;;;;;24.25;8.75;;;21.80;62.80;;;;;;4879306;28;96208;-85
2023/05/25 07:07:06;;;;;;;21.73;7.47;;;21.80;62.60;;;;;;4878098;28;96442;-87
2023/05/25 07:09:32;;;;;;;29.10;8.70;;;21.80;62.80;;;;;;4878368;28;93996;-86
2023/05/25 07:11:57;;;;;;;25.77;7.88;;;21.80;62.90;;;;;;4878674;28;93454;-85
2023/05/25 07:14:23;;;;;;;25.55;8.43;;;21.80;62.50;;;;;;4877283;28;95409;-87
2023/05/25 07:16:49;;;;;;;21.35;7.80;;;21.80;62.60;;;;;;4881277;28;92624;-86
2023/05/25 07:19:15;;;;;;;23.95;8.35;;;21.90;62.60;;;;;;4880036;28;92672;-86
2023/05/25 07:21:40;;;;;;;22.25;8.85;;;21.90;62.70;;;;;;4881201;28;92232;-86
2023/05/25 07:24:06;;;;;;;20.90;8.40;;;21.90;62.60;;;;;;4881016;28;94483;-86
2023/05/25 07:26:33;;;;;;;24.70;9.00;;;21.90;62.40;;;;;;4881364;28;93562;-88
2023/05/25 07:28:59;;;;;;;23.08;8.10;;;21.90;62.40;;;;;;4882044;28;94152;-86
2023/05/25 07:31:25;;;;;;;24.90;8.27;;;22.00;62.10;;;;;;4881285;28;92598;-87
2023/05/25 07:33:52;;;;;;;27.25;8.23;;;22.10;62.20;;;;;;4880392;28;94181;-85
2023/05/25 07:36:18;;;;;;;27.77;9.38;;;22.00;61.80;;;;;;4879462;28;94606;-91
2023/05/25 07:38:45;;;;;;;29.35;8.38;;;22.10;62.20;;;;;;4881779;28;92981;-93
2023/05/25 07:41:12;;;;;;;21.88;7.78;;;22.20;62.20;;;;;;4885070;28;92763;-92
2023/05/25 07:43:38;;;;;;;28.60;7.72;;;22.20;62.20;;;;;;4882553;28;95501;-92
2023/05/25 07:46:04;;;;;;;29.35;8.55;;;22.20;60.90;;;;;;4882189;28;95563;-90
2023/05/25 07:48:30;;;;;;;31.50;9.13;;;22.20;61.20;;;;;;4883364;28;92712;-90
2023/05/25 07:50:56;;;;;;;30.65;7.40;;;22.20;61.90;;;;;;4902108;28;92996;-90
2023/05/25 07:53:22;;;;;;;30.95;8.55;;;22.20;60.70;;;;;;4885946;28;93896;-92
2023/05/25 07:55:47;;;;;;;27.73;7.07;;;22.10;60.60;;;;;;4887978;28;96545;-94
2023/05/25 07:58:13;;;;;;;21.00;6.63;;;22.00;59.80;;;;;;4888272;28;92968;-92
2023/05/25 08:00:39;;;;;;;22.85;6.85;;;22.00;60.20;;;;;;4892829;28;92720;-95
2023/05/25 08:03:04;;;;;;;20.33;6.85;;;22.00;60.50;;;;;;4891733;28;95683;-93
2023/05/25 08:05:30;;;;;;;15.27;6.65;;;22.10;60.30;;;;;;4884264;28;95386;-93
2023/05/25 08:07:56;;;;;;;22.33;7.20;;;22.10;60.60;;;;;;4865495;28;92814;-92
2023/05/25 08:10:22;;;;;;;19.08;6.93;;;22.10;61.60;;;;;;4876844;28;93472;-92
2023/05/25 08:12:48;;;;;;;24.90;7.40;;;22.10;61.10;;;;;;4902162;28;94042;-91
2023/05/25 08:15:15;;;;;;;18.95;6.93;;;22.10;61.10;;;;;;4897278;28;95095;-94
2023/05/25 08:17:41;;;;;;;24.73;6.75;;;22.20;61.30;;;;;;4911555;28;93807;-91
2023/05/25 08:20:09;;;;;;;21.25;7.18;;;22.20;61.30;;;;;;4882376;28;92465;-94
2023/05/25 08:22:37;;;;;;;19.77;6.87;;;22.30;62.00;;;;;;4896267;28;93640;-93
2023/05/25 08:25:04;;;;;;;26.40;8.02;;;22.30;61.80;;;;;;4898376;28;95443;-95
2023/05/25 08:27:30;;;;;;;23.52;7.13;;;22.30;61.90;;;;;;4897418;28;93692;-93
2023/05/25 08:29:55;;;;;;;21.55;7.18;;;22.30;62.00;;;;;;4890862;28;92711;-93
2023/05/25 08:32:21;;;;;;;27.23;8.07;;;22.30;61.80;;;;;;4899514;28;94690;-90
2023/05/25 08:34:46;;;;;;;19.95;7.22;;;22.30;62.30;;;;;;4894712;28;95393;-95
2023/05/25 08:37:12;;;;;;;19.52;7.55;;;22.40;62.30;;;;;;4898857;28;93077;-93
2023/05/25 08:39:38;;;;;;;20.02;7.72;;;22.40;62.20;;;;;;4892315;28;93108;-91
2023/05/25 08:42:05;;;;;;;23.45;8.25;;;22.50;62.50;;;;;;4888374;28;96879;-90
2023/05/25 08:44:32;;;;;;;25.80;7.65;;;22.50;61.10;;;;;;4889966;28;93194;-92
2023/05/25 08:47:04;;;;;;;25.90;6.47;;;22.50;61.00;;;;;;4889300;28;92585;-90
2023/05/25 08:49:33;;;;;;;17.92;7.22;;;22.40;60.20;;;;;;4889632;28;92679;-91
2023/05/25 08:51:59;;;;;;;37.50;8.73;;;22.40;60.70;;;;;;4889425;28;93046;-90
2023/05/25 08:54:30;;;;;;;118.50;25.63;;;22.40;60.00;;;;;;4888361;28;92938;-94
2023/05/25 08:57:16;;;;;;;126.35;32.63;;;22.40;59.80;;;;;;4890473;28;92493;-92
2023/05/25 08:59:47;;;;;;;173.52;39.35;;;22.40;61.40;;;;;;4890307;28;91592;-91
2023/05/25 09:02:33;;;;;;;204.20;43.20;;;22.40;60.80;;;;;;4903537;28;95303;-92
2023/05/25 09:05:00;;;;;;;197.90;40.88;;;22.40;60.80;;;;;;4905113;28;94638;-93
2023/05/25 09:07:28;;;;;;;227.63;46.42;;;22.40;60.60;;;;;;4886641;28;93694;-94
2023/05/25 09:09:54;;;;;;;238.68;49.85;;;22.40;60.30;;;;;;4893071;28;92316;-93
2023/05/25 09:12:21;;;;;;;178.05;42.60;;;22.40;59.80;;;;;;4892862;28;95803;-91
2023/05/25 09:14:47;;;;;;;204.50;45.22;;;22.60;59.90;;;;;;4886638;28;95325;-93
2023/05/25 09:17:18;;;;;;;194.80;44.03;;;22.60;59.60;;;;;;4886431;28;92621;-91
2023/05/25 09:19:45;;;;;;;193.07;42.22;;;22.60;59.90;;;;;;4887470;28;92797;-92
2023/05/25 09:22:10;;;;;;;178.93;42.55;;;22.60;60.10;;;;;;4885609;28;96991;-90
2023/05/25 09:24:39;;;;;;;177.82;41.50;;;22.60;60.30;;;;;;4887009;28;93884;-90
2023/05/25 09:27:06;;;;;;;165.70;41.83;;;22.60;60.50;;;;;;4889342;28;92454;-93
2023/05/25 09:29:32;;;;;;;185.20;46.15;;;22.60;61.60;;;;;;4888186;28;92380;-93
2023/05/25 09:31:58;;;;;;;174.57;43.90;;;22.60;61.10;;;;;;4885854;28;95559;-94
2023/05/25 09:34:32;;;;;;;179.93;45.33;;;22.50;61.40;;;;;;4887733;28;93784;-91
2023/05/25 09:36:59;;;;;;;163.75;41.40;;;22.60;61.60;;;;;;4902976;28;92788;-93
2023/05/25 09:39:25;;;;;;;147.65;40.92;;;22.60;61.20;;;;;;4887099;28;92628;-93
2023/05/25 09:41:51;;;;;;;166.27;43.55;;;22.70;61.70;;;;;;4889998;28;92664;-92
2023/05/25 09:44:17;;;;;;;167.45;41.25;;;22.70;61.70;;;;;;4886315;28;95359;-94
2023/05/25 09:46:43;;;;;;;159.65;40.22;;;22.80;61.90;;;;;;4883447;28;92422;-92
2023/05/25 09:49:10;;;;;;;152.07;38.75;;;22.80;62.00;;;;;;4899598;28;92276;-93
2023/05/25 09:51:36;;;;;;;148.82;39.20;;;22.70;61.90;;;;;;4883519;28;95773;-93
2023/05/25 09:54:08;;;;;;;126.72;36.55;;;22.70;62.10;;;;;;4886553;28;95850;-94
2023/05/25 09:56:34;;;;;;;134.43;36.45;;;22.60;62.20;;;;;;4884652;28;93640;-92
2023/05/25 09:59:01;;;;;;;124.75;35.22;;;22.60;62.30;;;;;;4884512;28;92399;-93
2023/05/25 10:01:27;;;;;;;116.80;31.02;;;22.60;62.40;;;;;;4886098;28;96230;-93
2023/05/25 10:03:55;;;;;;;115.75;32.75;;;22.60;62.70;;;;;;4899559;28;96109;-92
2023/05/25 10:06:22;;;;;;;111.40;34.10;;;22.60;62.70;;;;;;4891921;28;92808;-95
2023/05/25 10:08:49;;;;;;;110.05;34.78;;;22.60;62.60;;;;;;4921281;28;92160;-91
2023/05/25 10:11:15;;;;;;;107.72;31.67;;;22.60;62.10;;;;;;4901333;28;93126;-93
2023/05/25 10:13:48;;;;;;;103.47;32.15;;;22.60;61.90;;;;;;4885370;28;95594;-91
2023/05/25 10:16:18;;;;;;;88.82;29.38;;;22.60;62.10;;;;;;4897015;28;92355;-94
2023/05/25 10:19:05;;;;;;;112.90;32.80;;;22.70;61.50;;;;;;4885360;28;91996;-92
2023/05/25 10:21:40;;;;;;;96.00;31.73;;;22.60;61.80;;;;;;4900481;28;96648;-91
2023/05/25 10:24:33;;;;;;;100.72;30.38;;;22.60;62.00;;;;;;4899836;28;96541;-91
2023/05/25 10:27:02;;;;;;;99.07;27.30;;;22.60;62.10;;;;;;4882755;28;93245;-93
2023/05/25 10:29:30;;;;;;;92.00;27.02;;;22.70;61.90;;;;;;4895820;28;92949;-89
2023/05/25 10:31:58;;;;;;;71.05;24.17;;;22.70;60.90;;;;;;4917035;28;95660;-92
2023/05/25 10:34:25;;;;;;;72.07;24.02;;;22.70;61.20;;;;;;4898711;28;95958;-94
2023/05/25 10:36:52;;;;;;;85.25;24.48;;;22.80;60.30;;;;;;4888068;28;92929;-89
2023/05/25 10:39:19;;;;;;;59.40;18.40;;;22.80;59.80;;;;;;4880920;28;91602;-90
2023/05/25 10:41:46;;;;;;;69.55;22.00;;;22.70;58.70;;;;;;4880602;28;93077;-90
2023/05/25 10:44:12;;;;;;;60.13;18.98;;;22.70;59.30;;;;;;4874559;28;94568;-89
2023/05/25 10:46:38;;;;;;;74.82;23.08;;;22.60;59.10;;;;;;4886788;28;94426;-92
2023/05/25 10:49:04;;;;;;;71.18;21.80;;;22.60;60.90;;;;;;4873729;28;93603;-91
2023/05/25 10:52:14;;;;;;;76.43;23.88;;;22.70;60.70;;;;;;4885538;28;94096;-91
2023/05/25 10:54:47;;;;;;;59.40;21.10;;;22.80;60.30;;;;;;5020499;23;92666;-91
2023/05/25 10:57:39;;;;;;;69.15;21.42;;;22.80;59.60;;;;;;4938028;28;92144;-91
2023/05/25 11:00:32;;;;;;;68.22;20.95;;;22.70;60.40;;;;;;4913611;28;91983;-90
2023/05/25 11:03:10;;;;;;;63.05;21.33;;;22.70;59.80;;;;;;4920892;28;94754;-91
2023/05/25 11:05:49;;;;;;;64.05;20.42;;;22.70;60.00;;;;;;4903647;28;95598;-90
2023/05/25 11:08:16;;;;;;;;;;;22.80;59.80;;;;;;4896929;28;93441;-91
2023/05/25 11:10:48;;;;;;;55.78;20.30;;;22.80;60.40;;;;;;4905767;28;92243;-94
2023/05/25 11:13:32;;;;;;;57.33;19.05;;;22.70;60.70;;;;;;4907526;28;93892;-91
2023/05/25 11:16:41;;;;;;;56.95;19.85;;;22.70;61.10;;;;;;4914671;28;92844;-90
2023/05/25 11:19:15;;;;;;;53.78;17.88;;;22.70;61.20;;;;;;4913807;28;92649;-91
2023/05/25 11:21:42;;;;;;;56.55;18.85;;;22.80;60.30;;;;;;4914748;28;92988;-91
2023/05/25 11:24:14;;;;;;;52.83;18.02;;;22.70;60.80;;;;;;4904853;23;94126;-92
2023/05/25 11:27:12;;;;;;;53.40;18.60;;;22.80;60.90;;;;;;4863562;28;96416;-91
2023/05/25 11:29:39;;;;;;;48.63;15.88;;;22.70;61.00;;;;;;4815467;29;92403;-91
2023/05/25 11:32:12;;;;;;;52.08;18.42;;;22.70;60.90;;;;;;4850390;28;92081;-92
2023/05/25 11:34:45;;;;;;;50.28;17.83;;;22.80;61.40;;;;;;4847049;28;94550;-92
2023/05/25 11:37:15;;;;;;;52.42;18.15;;;22.80;61.60;;;;;;4848567;28;93692;-92
2023/05/25 11:39:51;;;;;;;50.22;18.10;;;22.70;61.50;;;;;;4843244;29;93110;-92
2023/05/25 11:42:20;;;;;;;57.15;19.83;;;22.80;61.70;;;;;;4844437;29;91939;-92
2023/05/25 11:44:53;;;;;;;51.85;17.65;;;22.80;62.00;;;;;;4850754;29;92915;-91
2023/05/25 11:47:22;;;;;;;57.50;17.85;;;22.70;62.20;;;;;;4857584;28;95920;-90
2023/05/25 11:49:48;;;;;;;55.00;18.27;;;22.70;61.90;;;;;;4848905;29;92609;-92
2023/05/25 11:52:24;;;;;;;51.45;17.58;;;22.70;62.20;;;;;;4840743;28;93261;-92
2023/05/25 11:54:53;;;;;;;43.22;16.52;;;22.70;62.00;;;;;;4856991;29;92758;-92
2023/05/25 11:57:34;;;;;;;48.30;17.33;;;22.70;62.30;;;;;;4851864;29;94424;-91
2023/05/25 12:00:05;;;;;;;45.10;15.75;;;22.60;62.60;;;;;;4846475;29;92654;-92
2023/05/25 12:02:37;;;;;;;49.25;16.80;;;22.60;62.50;;;;;;4858915;28;93154;-91
2023/05/25 12:05:03;;;;;;;42.92;15.98;;;22.60;62.80;;;;;;4842421;28;96923;-93
2023/05/25 12:07:30;;;;;;;43.35;16.35;;;22.60;62.30;;;;;;4851724;28;96302;-91
2023/05/25 12:10:07;;;;;;;50.58;16.30;;;22.60;61.60;;;;;;4857525;28;93640;-92
2023/05/25 12:12:47;;;;;;;47.47;15.93;;;22.70;61.50;;;;;;4862377;28;92976;-89
2023/05/25 12:15:15;;;;;;;35.30;13.63;;;22.70;61.40;;;;;;4850222;28;93100;-90
2023/05/25 12:17:44;;;;;;;41.17;14.48;;;22.70;60.90;;;;;;4862020;28;94969;-91
2023/05/25 12:20:11;;;;;;;43.25;14.65;;;22.70;60.80;;;;;;4860336;28;92999;-90
2023/05/25 12:22:41;;;;;;;43.78;16.90;;;22.70;61.30;;;;;;4861177;28;91827;-90
2023/05/25 12:25:09;;;;;;;37.15;14.85;;;22.80;61.40;;;;;;4858896;28;95052;-89
2023/05/25 12:27:43;;;;;;;32.17;13.00;;;22.80;60.90;;;;;;4847171;28;92376;-89
2023/05/25 12:30:10;;;;;;;38.72;14.82;;;22.80;61.40;;;;;;4836690;28;93547;-92
2023/05/25 12:32:53;;;;;;;45.10;15.02;;;22.70;61.50;;;;;;4842880;29;92970;-89
2023/05/25 12:35:20;;;;;;;45.05;15.10;;;22.80;61.40;;;;;;4859594;28;94995;-89
2023/05/25 12:37:47;;;;;;;43.67;14.82;;;22.90;60.90;;;;;;4843514;28;93651;-88
2023/05/25 12:40:18;;;;;;;39.80;13.68;;;22.90;60.70;;;;;;4843354;28;92353;-88
2023/05/25 12:42:44;;;;;;;34.60;13.70;;;22.80;60.90;;;;;;4840361;29;92331;-88